createdAt,value
2022-10-23T00:01:27.812Z,13.20
2022-10-23T00:04:03.245Z,13.10
2022-10-23T00:06:37.229Z,14.60
2022-10-23T00:09:13.857Z,14.20
2022-10-23T00:11:48.241Z,14.30
2022-10-23T00:14:23.801Z,14.10
2022-10-23T00:16:56.616Z,14.30
2022-10-23T00:19:29.357Z,14.00
2022-10-23T00:22:02.202Z,12.90
2022-10-23T00:24:35.054Z,13.70
2022-10-23T00:27:07.956Z,12.80
2022-10-23T00:29:40.757Z,13.20
2022-10-23T00:32:13.525Z,13.40
2022-10-23T00:34:46.581Z,12.60
2022-10-23T00:37:19.745Z,13.70
2022-10-23T00:39:52.749Z,13.40
2022-10-23T00:42:26.401Z,13.30
2022-10-23T00:45:26.565Z,12.80
2022-10-23T00:47:59.313Z,12.30
2022-10-23T00:50:34.267Z,11.60
2022-10-23T00:53:08.935Z,13.20
2022-10-23T00:55:46.979Z,11.20
2022-10-23T00:58:22.453Z,11.10
2022-10-23T01:00:58.078Z,11.40
2022-10-23T01:03:32.211Z,11.80
2022-10-23T01:06:14.052Z,12.00
2022-10-23T01:08:52.593Z,12.10
2022-10-23T01:11:31.192Z,12.10
2022-10-23T01:14:13.449Z,13.70
2022-10-23T01:16:51.872Z,14.50
2022-10-23T01:19:45.895Z,12.00
2022-10-23T01:22:39.650Z,12.20
2022-10-23T01:25:29.211Z,13.30
2022-10-23T01:28:06.345Z,13.50
2022-10-23T01:30:44.088Z,14.30
2022-10-23T01:33:23.049Z,14.40
2022-10-23T01:36:01.663Z,12.00
2022-10-23T01:38:43.023Z,14.50
2022-10-23T01:41:33.102Z,11.50
2022-10-23T01:44:16.289Z,12.90
2022-10-23T01:46:51.321Z,13.50
2022-10-23T01:49:26.182Z,13.50
2022-10-23T01:52:07.637Z,14.20
2022-10-23T01:54:43.789Z,13.40
2022-10-23T01:57:20.171Z,11.40
2022-10-23T01:59:57.384Z,12.30
2022-10-23T02:02:31.631Z,12.10
2022-10-23T02:05:10.597Z,12.80
2022-10-23T02:07:44.025Z,12.20
2022-10-23T02:10:18.133Z,12.40
2022-10-23T02:12:59.382Z,12.40
2022-10-23T02:15:37.519Z,13.80
2022-10-23T02:18:19.985Z,12.00
2022-10-23T02:20:57.833Z,13.50
2022-10-23T02:23:36.951Z,12.60
2022-10-23T02:26:17.322Z,11.40
2022-10-23T02:28:59.085Z,11.70
2022-10-23T02:31:32.437Z,12.90
2022-10-23T02:34:05.257Z,12.10
2022-10-23T02:36:38.111Z,11.90
2022-10-23T02:39:11.288Z,12.50
2022-10-23T02:41:50.554Z,10.60
2022-10-23T02:44:40.395Z,10.70
2022-10-23T02:47:29.205Z,10.70
2022-10-23T02:50:11.455Z,10.50
2022-10-23T02:52:57.421Z,11.30
2022-10-23T02:55:42.728Z,10.60
2022-10-23T02:58:25.407Z,10.70
2022-10-23T03:01:03.161Z,10.70
2022-10-23T03:03:40.965Z,10.70
2022-10-23T03:06:14.095Z,10.80
2022-10-23T03:08:50.665Z,11.70
2022-10-23T03:11:24.181Z,10.20
2022-10-23T03:13:57.244Z,10.70
2022-10-23T03:16:30.117Z,11.60
2022-10-23T03:19:02.992Z,13.20
2022-10-23T03:21:35.900Z,12.70
2022-10-23T03:24:09.873Z,12.40
2022-10-23T03:26:46.595Z,11.40
2022-10-23T03:29:19.405Z,12.20
2022-10-23T03:31:52.197Z,11.10
2022-10-23T03:34:25.172Z,11.50
2022-10-23T03:36:59.143Z,11.20
2022-10-23T03:39:32.304Z,11.70
2022-10-23T03:42:05.474Z,10.40
2022-10-23T03:44:38.729Z,10.70
2022-10-23T03:47:12.155Z,10.60
2022-10-23T03:49:45.101Z,11.10
2022-10-23T03:52:17.893Z,11.40
2022-10-23T03:54:50.673Z,11.40
2022-10-23T03:57:24.353Z,11.00
2022-10-23T03:59:57.349Z,11.40
2022-10-23T04:02:34.495Z,10.50
2022-10-23T04:05:08.496Z,11.50
2022-10-23T04:07:41.282Z,10.40
2022-10-23T04:10:14.604Z,11.30
2022-10-23T04:12:47.447Z,10.70
2022-10-23T04:15:20.700Z,9.70
2022-10-23T04:17:53.472Z,8.60
2022-10-23T04:20:26.265Z,11.00
2022-10-23T04:22:59.243Z,10.40
2022-10-23T04:25:32.129Z,11.10
2022-10-23T04:28:05.057Z,11.30
2022-10-23T04:30:42.872Z,11.10
2022-10-23T04:33:18.469Z,11.00
2022-10-23T04:35:57.806Z,10.80
2022-10-23T04:38:30.708Z,10.60
2022-10-23T04:41:03.675Z,9.70
2022-10-23T04:43:36.830Z,9.80
2022-10-23T04:46:09.944Z,8.60
2022-10-23T04:48:42.807Z,8.50
2022-10-23T04:51:35.905Z,9.20
2022-10-23T04:54:15.977Z,8.90
2022-10-23T04:57:08.486Z,9.30
2022-10-23T04:59:58.747Z,8.90
2022-10-23T05:02:31.626Z,9.60
2022-10-23T05:05:05.814Z,11.60
2022-10-23T05:07:42.197Z,10.20
2022-10-23T05:10:26.229Z,9.60
2022-10-23T05:13:10.291Z,9.70
2022-10-23T05:18:28.247Z,9.00
2022-10-23T05:21:06.326Z,11.90
2022-10-23T05:23:42.379Z,13.10
2022-10-23T05:26:15.566Z,16.90
2022-10-23T05:28:51.118Z,40.40
2022-10-23T05:31:25.580Z,16.30
2022-10-23T05:34:02.905Z,13.80
2022-10-23T05:36:36.428Z,12.80
2022-10-23T05:39:09.466Z,13.40
2022-10-23T05:41:42.881Z,13.80
2022-10-23T05:44:15.630Z,15.10
2022-10-23T05:47:09.916Z,10.70
2022-10-23T05:50:09.746Z,11.30
2022-10-23T05:53:01.149Z,10.90
2022-10-23T05:55:44.866Z,12.60
2022-10-23T05:58:36.793Z,11.50
2022-10-23T06:01:20.236Z,10.60
2022-10-23T06:04:06.006Z,12.50
2022-10-23T06:06:56.035Z,12.90
2022-10-23T06:09:29.865Z,13.80
2022-10-23T06:12:04.168Z,8.90
2022-10-23T06:14:37.529Z,8.50
2022-10-23T06:17:10.555Z,8.60
2022-10-23T06:19:47.360Z,9.40
2022-10-23T06:22:23.580Z,10.00
2022-10-23T06:25:00.184Z,9.00
2022-10-23T06:27:33.243Z,10.70
2022-10-23T06:30:09.497Z,9.20
2022-10-23T06:32:42.714Z,9.60
2022-10-23T06:35:18.907Z,8.30
2022-10-23T06:37:52.235Z,9.70
2022-10-23T06:40:35.158Z,9.30
2022-10-23T06:43:11.271Z,8.80
2022-10-23T06:46:13.769Z,9.70
2022-10-23T06:49:06.966Z,9.30
2022-10-23T06:51:46.306Z,10.90
2022-10-23T06:54:20.100Z,10.70
2022-10-23T06:56:55.615Z,10.40
2022-10-23T06:59:35.403Z,10.60
2022-10-23T07:02:10.347Z,10.00
2022-10-23T07:04:43.465Z,8.60
2022-10-23T07:07:20.620Z,11.10
2022-10-23T07:09:56.259Z,10.40
2022-10-23T07:13:04.419Z,10.50
2022-10-23T07:15:37.427Z,15.10
2022-10-23T07:18:14.624Z,10.40
2022-10-23T07:21:06.107Z,9.50
2022-10-23T07:23:39.226Z,8.80
2022-10-23T07:26:15.638Z,9.30
2022-10-23T07:28:55.059Z,7.30
2022-10-23T07:31:29.049Z,8.90
2022-10-23T07:34:22.229Z,10.30
2022-10-23T07:37:01.002Z,21.40
2022-10-23T07:39:33.845Z,15.10
2022-10-23T07:42:06.933Z,32.80
2022-10-23T07:44:40.536Z,11.70
2022-10-23T07:47:13.392Z,9.80
2022-10-23T07:49:48.608Z,10.40
2022-10-23T07:52:22.330Z,8.90
2022-10-23T07:55:16.003Z,7.70
2022-10-23T07:57:58.620Z,8.10
2022-10-23T08:00:43.071Z,7.50
2022-10-23T08:03:23.711Z,6.80
2022-10-23T08:05:58.860Z,6.70
2022-10-23T08:08:32.889Z,6.90
2022-10-23T08:11:08.425Z,7.30
2022-10-23T08:13:49.445Z,6.60
2022-10-23T08:16:22.882Z,6.80
2022-10-23T08:19:19.033Z,6.10
2022-10-23T08:21:54.886Z,6.80
2022-10-23T08:24:27.996Z,6.90
2022-10-23T08:27:02.225Z,6.20
2022-10-23T08:29:35.819Z,6.60
2022-10-23T08:32:09.054Z,7.00
2022-10-23T08:34:54.539Z,5.70
2022-10-23T08:37:29.110Z,6.00
2022-10-23T08:40:02.606Z,5.50
2022-10-23T08:43:01.326Z,5.40
2022-10-23T08:45:42.461Z,5.50
2022-10-23T08:48:31.855Z,5.30
2022-10-23T08:51:41.858Z,5.00
2022-10-23T08:54:19.500Z,4.60
2022-10-23T08:56:58.503Z,4.90
2022-10-23T08:59:39.629Z,4.50
2022-10-23T09:02:22.505Z,4.60
2022-10-23T09:04:58.604Z,4.60
2022-10-23T09:07:48.094Z,4.10
2022-10-23T09:10:38.771Z,3.90
2022-10-23T09:13:30.446Z,4.10
2022-10-23T09:16:13.039Z,4.20
2022-10-23T09:18:48.379Z,4.20
2022-10-23T09:21:22.099Z,4.20
2022-10-23T09:23:55.030Z,3.40
2022-10-23T09:26:27.964Z,4.10
2022-10-23T09:29:20.205Z,3.70
2022-10-23T09:31:58.302Z,4.10
2022-10-23T09:34:33.593Z,3.60
2022-10-23T09:37:22.657Z,4.70
2022-10-23T09:40:15.554Z,3.40
2022-10-23T09:43:05.097Z,4.50
2022-10-23T09:48:18.727Z,4.90
2022-10-23T09:50:57.791Z,2.80
2022-10-23T09:53:41.348Z,3.20
2022-10-23T09:56:31.776Z,3.10
2022-10-23T09:59:07.067Z,2.90
2022-10-23T10:01:49.542Z,2.50
2022-10-23T10:04:45.105Z,2.70
2022-10-23T10:07:24.262Z,2.80
2022-10-23T10:09:59.044Z,2.80
2022-10-23T10:12:51.276Z,2.80
2022-10-23T10:15:34.842Z,3.00
2022-10-23T10:18:20.776Z,2.90
2022-10-23T10:21:12.342Z,3.40
2022-10-23T10:23:55.997Z,3.50
2022-10-23T10:26:40.933Z,3.50
2022-10-23T10:29:30.987Z,3.40
2022-10-23T10:32:27.518Z,3.20
2022-10-23T10:35:09.844Z,3.50
2022-10-23T10:37:56.791Z,3.60
2022-10-23T10:40:34.362Z,2.80
2022-10-23T10:43:29.718Z,5.30
2022-10-23T10:46:11.351Z,3.00
2022-10-23T10:48:58.104Z,4.50
2022-10-23T10:51:41.923Z,3.70
2022-10-23T10:54:31.771Z,3.60
2022-10-23T10:57:15.042Z,2.90
2022-10-23T10:59:52.566Z,2.80
2022-10-23T11:02:33.358Z,5.70
2022-10-23T11:05:20.176Z,3.30
2022-10-23T11:08:00.431Z,3.10
2022-10-23T11:10:34.046Z,2.80
2022-10-23T11:13:07.337Z,2.90
2022-10-23T11:15:47.239Z,3.80
2022-10-23T11:18:26.801Z,3.10
2022-10-23T11:21:10.409Z,2.70
2022-10-23T11:24:21.974Z,2.40
2022-10-23T11:27:14.731Z,3.30
2022-10-23T11:30:12.113Z,6.20
2022-10-23T11:33:25.810Z,3.40
2022-10-23T11:36:14.286Z,2.70
2022-10-23T11:38:50.512Z,2.90
2022-10-23T11:41:27.449Z,3.40
2022-10-23T11:44:04.810Z,2.50
2022-10-23T11:46:40.021Z,2.70
2022-10-23T11:49:24.485Z,3.10
2022-10-23T11:52:06.479Z,2.90
2022-10-23T11:54:39.250Z,2.60
2022-10-23T11:57:18.421Z,3.10
2022-10-23T12:00:00.969Z,2.70
2022-10-23T12:02:38.470Z,2.40
2022-10-23T12:05:30.795Z,3.10
2022-10-23T12:08:07.972Z,3.30
2022-10-23T12:10:50.725Z,3.00
2022-10-23T12:13:48.332Z,3.10
2022-10-23T12:16:21.232Z,3.20
2022-10-23T12:18:57.166Z,3.10
2022-10-23T12:21:39.236Z,2.50
2022-10-23T12:24:31.892Z,2.50
2022-10-23T12:27:22.957Z,2.30
2022-10-23T12:30:14.126Z,3.60
2022-10-23T12:33:06.646Z,3.40
2022-10-23T12:36:17.037Z,2.80
2022-10-23T12:38:51.226Z,3.20
2022-10-23T12:41:28.350Z,2.80
2022-10-23T12:44:04.448Z,3.30
2022-10-23T12:46:41.725Z,3.30
2022-10-23T12:49:21.146Z,5.10
2022-10-23T12:52:02.011Z,3.60
2022-10-23T12:54:41.827Z,3.00
2022-10-23T12:57:26.805Z,3.30
2022-10-23T13:00:04.678Z,3.00
2022-10-23T13:02:39.985Z,3.10
2022-10-23T13:05:20.906Z,3.30
2022-10-23T13:07:55.130Z,3.10
2022-10-23T13:10:35.616Z,3.30
2022-10-23T13:13:13.414Z,3.80
2022-10-23T13:15:47.503Z,4.20
2022-10-23T13:18:21.225Z,3.60
2022-10-23T13:21:21.418Z,10.90
2022-10-23T13:23:56.222Z,3.30
2022-10-23T13:26:43.046Z,3.60
2022-10-23T13:31:58.621Z,3.50
2022-10-23T13:34:33.370Z,3.20
2022-10-23T13:37:25.663Z,5.50
2022-10-23T13:40:23.468Z,9.80
2022-10-23T13:42:59.020Z,6.60
2022-10-23T13:45:31.917Z,3.20
2022-10-23T13:48:09.390Z,4.10
2022-10-23T13:50:42.329Z,3.40
2022-10-23T13:53:16.968Z,3.30
2022-10-23T13:55:56.277Z,3.70
2022-10-23T13:58:31.528Z,3.70
2022-10-23T14:01:04.904Z,3.40
2022-10-23T14:03:37.798Z,3.70
2022-10-23T14:06:13.280Z,3.40
2022-10-23T14:08:47.017Z,5.80
2022-10-23T14:11:22.344Z,3.40
2022-10-23T14:13:55.792Z,4.00
2022-10-23T14:16:29.889Z,3.20
2022-10-23T14:19:03.092Z,3.30
2022-10-23T14:21:38.834Z,3.60
2022-10-23T14:24:12.951Z,3.60
2022-10-23T14:26:48.006Z,3.60
2022-10-23T14:29:24.105Z,3.60
2022-10-23T14:31:57.420Z,3.60
2022-10-23T14:34:30.219Z,3.40
2022-10-23T14:37:08.769Z,3.70
2022-10-23T14:39:46.205Z,4.50
2022-10-23T14:42:21.934Z,4.00
2022-10-23T14:44:55.047Z,3.70
2022-10-23T14:47:27.918Z,3.80
2022-10-23T14:50:00.737Z,4.10
2022-10-23T14:52:33.589Z,4.10
2022-10-23T14:55:07.100Z,3.80
2022-10-23T14:57:40.381Z,3.50
2022-10-23T15:00:17.437Z,3.70
2022-10-23T15:02:50.454Z,14.20
2022-10-23T15:05:23.454Z,6.00
2022-10-23T15:07:59.151Z,4.60
2022-10-23T15:10:32.287Z,5.30
2022-10-23T15:13:05.304Z,5.50
2022-10-23T15:15:37.836Z,4.90
2022-10-23T15:18:10.622Z,5.70
2022-10-23T15:20:43.505Z,6.50
2022-10-23T15:23:16.327Z,6.30
2022-10-23T15:25:57.586Z,7.80
2022-10-23T15:28:31.218Z,8.30
2022-10-23T15:31:04.212Z,8.20
2022-10-23T15:33:39.009Z,7.90
2022-10-23T15:36:12.261Z,8.60
2022-10-23T15:38:45.004Z,8.80
2022-10-23T15:41:23.990Z,8.80
2022-10-23T15:43:56.888Z,7.80
2022-10-23T15:46:30.384Z,8.00
2022-10-23T15:49:03.406Z,7.50
2022-10-23T15:51:36.926Z,7.40
2022-10-23T15:54:13.268Z,7.00
2022-10-23T15:56:46.463Z,6.80
2022-10-23T15:59:21.035Z,7.10
2022-10-23T16:01:55.770Z,7.90
2022-10-23T16:04:29.689Z,9.20
2022-10-23T16:07:02.652Z,9.20
2022-10-23T16:09:35.602Z,11.80
2022-10-23T16:12:09.666Z,11.40
2022-10-23T16:14:43.162Z,12.30
2022-10-23T16:19:53.954Z,13.30
2022-10-23T16:22:27.397Z,12.10
2022-10-23T16:25:00.360Z,10.00
2022-10-23T16:27:33.546Z,8.70
2022-10-23T16:30:09.432Z,8.40
2022-10-23T16:32:42.337Z,8.30
2022-10-23T16:35:15.206Z,8.60
2022-10-23T16:37:54.682Z,9.00
2022-10-23T16:40:27.584Z,8.60
2022-10-23T16:43:18.632Z,9.70
2022-10-23T16:46:09.694Z,9.80
2022-10-23T16:48:43.783Z,9.20
2022-10-23T16:51:19.433Z,10.60
2022-10-23T16:53:53.087Z,8.90
2022-10-23T16:56:29.104Z,9.50
2022-10-23T16:59:02.268Z,10.40
2022-10-23T17:01:37.624Z,8.20
2022-10-23T17:04:11.355Z,7.70
2022-10-23T17:06:44.653Z,8.30
2022-10-23T17:09:19.475Z,7.50
2022-10-23T17:11:53.950Z,6.80
2022-10-23T17:14:29.289Z,8.10
2022-10-23T17:17:05.749Z,8.60
2022-10-23T17:19:46.067Z,7.50
2022-10-23T17:22:19.756Z,13.00
2022-10-23T17:24:53.890Z,8.80
2022-10-23T17:27:27.060Z,9.50
2022-10-23T17:30:00.545Z,9.20
2022-10-23T17:32:33.401Z,9.40
2022-10-23T17:35:07.023Z,7.90
2022-10-23T17:37:40.072Z,8.10
2022-10-23T17:40:14.559Z,10.20
2022-10-23T17:42:47.513Z,11.10
2022-10-23T17:45:20.655Z,10.00
2022-10-23T17:47:53.936Z,10.40
2022-10-23T17:50:26.968Z,10.70
2022-10-23T17:52:59.825Z,10.50
2022-10-23T17:55:32.748Z,12.10
2022-10-23T17:58:05.762Z,12.70
2022-10-23T18:00:39.848Z,12.70
2022-10-23T18:03:14.563Z,13.30
2022-10-23T18:05:50.615Z,11.90
2022-10-23T18:08:23.562Z,12.10
2022-10-23T18:10:56.400Z,10.70
2022-10-23T18:13:29.311Z,12.40
2022-10-23T18:16:06.471Z,11.40
2022-10-23T18:18:39.909Z,12.70
2022-10-23T18:21:13.501Z,11.10
2022-10-23T18:23:47.238Z,10.50
2022-10-23T18:26:23.299Z,12.30
2022-10-23T18:28:59.071Z,15.90
2022-10-23T18:31:32.770Z,14.20
2022-10-23T18:34:08.034Z,11.80
2022-10-23T18:36:42.663Z,12.70
2022-10-23T18:39:22.359Z,11.60
2022-10-23T18:41:58.468Z,10.70
2022-10-23T18:44:31.481Z,10.00
2022-10-23T18:47:04.483Z,10.10
2022-10-23T18:49:37.382Z,11.70
2022-10-23T18:52:10.470Z,12.60
2022-10-23T18:54:43.491Z,12.90
2022-10-23T18:57:16.371Z,13.60
2022-10-23T18:59:51.105Z,12.80
2022-10-23T19:02:24.124Z,12.10
2022-10-23T19:04:57.193Z,11.50
2022-10-23T19:07:30.032Z,11.80
2022-10-23T19:10:03.557Z,11.30
2022-10-23T19:12:36.722Z,10.70
2022-10-23T19:15:11.558Z,10.90
2022-10-23T19:17:44.647Z,10.60
2022-10-23T19:20:20.363Z,9.00
2022-10-23T19:22:55.017Z,9.80
2022-10-23T19:25:32.190Z,9.40
2022-10-23T19:28:06.049Z,11.30
2022-10-23T19:30:38.952Z,10.80
2022-10-23T19:33:11.889Z,8.80
2022-10-23T19:35:44.826Z,8.90
2022-10-23T19:38:17.713Z,9.20
2022-10-23T19:40:50.595Z,9.60
2022-10-23T19:43:23.610Z,9.80
2022-10-23T19:45:56.500Z,10.80
2022-10-23T19:48:29.504Z,9.60
2022-10-23T19:51:02.603Z,9.90
2022-10-23T19:53:36.309Z,9.00
2022-10-23T19:56:12.494Z,9.50
2022-10-23T19:58:45.889Z,9.90
2022-10-23T20:01:21.452Z,9.20
2022-10-23T20:03:55.605Z,8.70
2022-10-23T20:06:34.650Z,9.20
2022-10-23T20:09:09.982Z,9.20
2022-10-23T20:11:43.719Z,8.50
2022-10-23T20:14:17.770Z,8.60
2022-10-23T20:16:55.704Z,9.80
2022-10-23T20:19:29.798Z,9.40
2022-10-23T20:22:02.773Z,9.00
2022-10-23T20:24:35.696Z,8.70
2022-10-23T20:27:09.679Z,8.20
2022-10-23T20:29:42.578Z,8.50
2022-10-23T20:32:16.041Z,8.30
2022-10-23T20:34:49.045Z,7.90
2022-10-23T20:37:21.885Z,8.10
2022-10-23T20:39:57.173Z,8.10
2022-10-23T20:42:30.105Z,8.00
2022-10-23T20:45:03.694Z,8.70
2022-10-23T20:47:36.533Z,8.20
2022-10-23T20:50:11.165Z,7.80
2022-10-23T20:52:44.092Z,8.50
2022-10-23T20:55:17.031Z,8.10
2022-10-23T20:57:49.934Z,7.70
2022-10-23T21:00:24.007Z,8.90
2022-10-23T21:02:57.275Z,11.00
2022-10-23T21:05:30.399Z,10.90
2022-10-23T21:08:03.235Z,8.90
2022-10-23T21:10:36.060Z,10.00
2022-10-23T21:13:09.044Z,7.90
2022-10-23T21:15:42.092Z,7.30
2022-10-23T21:18:27.200Z,7.00
2022-10-23T21:21:11.149Z,9.10
2022-10-23T21:23:44.284Z,7.80
2022-10-23T21:26:18.895Z,7.80
2022-10-23T21:28:56.354Z,8.10
2022-10-23T21:31:46.445Z,8.50
2022-10-23T21:34:19.327Z,9.50
2022-10-23T21:37:13.141Z,8.30
2022-10-23T21:39:45.844Z,8.60
2022-10-23T21:42:18.848Z,8.40
2022-10-23T21:44:51.796Z,9.20
2022-10-23T21:47:24.740Z,9.10
2022-10-23T21:49:57.666Z,10.40
2022-10-23T21:52:30.517Z,8.90
2022-10-23T21:55:03.545Z,8.70
2022-10-23T21:57:37.020Z,8.50
2022-10-23T22:00:14.976Z,8.70
2022-10-23T22:02:48.191Z,10.40
2022-10-23T22:05:21.324Z,9.20
2022-10-23T22:07:54.196Z,9.90
2022-10-23T22:10:27.262Z,10.80
2022-10-23T22:13:00.978Z,9.80
2022-10-23T22:15:33.936Z,10.80
2022-10-23T22:18:07.037Z,8.90
2022-10-23T22:20:39.962Z,10.30
2022-10-23T22:23:12.794Z,10.90
2022-10-23T22:25:45.659Z,9.60
2022-10-23T22:28:18.458Z,9.50
2022-10-23T22:30:51.678Z,10.70
2022-10-23T22:33:24.483Z,9.40
2022-10-23T22:36:03.307Z,10.90
2022-10-23T22:38:36.750Z,9.90
2022-10-23T22:41:10.358Z,9.50
2022-10-23T22:43:43.290Z,9.80
2022-10-23T22:46:19.632Z,9.10
2022-10-23T22:48:52.669Z,10.40
2022-10-23T22:51:28.627Z,8.10
2022-10-23T22:54:02.790Z,9.60
2022-10-23T22:56:35.869Z,9.50
2022-10-23T22:59:08.915Z,9.80
2022-10-23T23:01:45.003Z,10.50
2022-10-23T23:04:37.338Z,11.50
2022-10-23T23:07:13.487Z,10.90
2022-10-23T23:09:47.105Z,10.40
2022-10-23T23:12:20.230Z,10.40
2022-10-23T23:14:53.119Z,9.50
2022-10-23T23:17:25.944Z,9.60
2022-10-23T23:19:58.904Z,10.50
2022-10-23T23:22:31.762Z,9.80
2022-10-23T23:25:04.858Z,9.50
2022-10-23T23:27:37.674Z,10.40
2022-10-23T23:30:13.055Z,9.60
2022-10-23T23:32:48.257Z,10.80
2022-10-23T23:35:21.332Z,11.20
2022-10-23T23:37:54.138Z,10.30
2022-10-23T23:40:27.174Z,11.00
2022-10-23T23:43:00.061Z,10.30
2022-10-23T23:45:33.076Z,9.70
2022-10-23T23:48:06.406Z,9.60
2022-10-23T23:50:39.603Z,10.30
2022-10-23T23:53:12.547Z,8.80
2022-10-23T23:55:45.391Z,9.60
2022-10-23T23:58:18.417Z,9.40
